Time;durP1;ratioP1;P1;durP2;ratioP2;P2;SDS_P1;SDS_P2;PMS_P1;PMS_P2;Temp;Humidity;BMP_temperature;BMP_pressure;BME280_temperature;BME280_humidity;BME280_pressure;Samples;Min_cycle;Max_cycle;Signal;HPM_P1;HPM_P2
2021/09/11 00:02:14;;;;;;;1999.90;999.90;;;;;;;18.11;48.63;100978.53;4990883;28;99443;-76
2021/09/11 00:04:46;;;;;;;1999.90;999.90;;;;;;;18.11;48.71;100973.16;4992409;28;99337;-76
2021/09/11 00:07:14;;;;;;;1999.90;999.90;;;;;;;18.09;48.95;100978.53;4996743;28;96904;-77
2021/09/11 00:09:42;;;;;;;1999.90;999.90;;;;;;;18.10;49.06;100980.31;4996759;28;97465;-77
2021/09/11 00:12:10;;;;;;;1999.90;999.90;;;;;;;18.08;49.11;100975.84;4977006;28;97729;-76
2021/09/11 00:14:38;;;;;;;1999.90;999.90;;;;;;;18.10;49.21;100979.41;4973382;28;99606;-76
2021/09/11 00:17:06;;;;;;;1999.90;999.90;;;;;;;18.07;49.20;100977.66;4972354;28;96806;-77
2021/09/11 00:19:35;;;;;;;1999.90;999.90;;;;;;;18.08;49.02;100968.66;4989908;28;96909;-77
2021/09/11 00:22:04;;;;;;;1999.90;999.90;;;;;;;18.08;49.03;100970.44;4978090;28;99470;-75
2021/09/11 00:24:32;;;;;;;1999.90;999.90;;;;;;;18.08;49.04;100970.44;4997525;28;97858;-77
2021/09/11 00:27:09;;;;;;;1999.90;999.90;;;;;;;18.08;49.34;100975.84;4992141;28;96850;-75
2021/09/11 00:29:37;;;;;;;1999.90;999.90;;;;;;;18.06;49.05;100978.53;4998437;28;96991;-76
2021/09/11 00:32:06;;;;;;;1999.90;999.90;;;;;;;18.04;49.25;100966.88;5000306;28;100445;-76
2021/09/11 00:34:36;;;;;;;1999.90;999.90;;;;;;;18.00;49.31;100971.38;5000978;28;99170;-76
2021/09/11 00:37:04;;;;;;;1999.90;999.90;;;;;;;18.00;49.26;100968.66;5007404;28;97085;-75
2021/09/11 00:39:32;;;;;;;1999.90;999.90;;;;;;;18.00;49.45;100971.38;5008563;28;97247;-75
2021/09/11 00:42:00;;;;;;;1999.90;999.90;;;;;;;17.97;49.61;100968.69;5005657;28;101158;-76
2021/09/11 00:44:28;;;;;;;1999.90;999.90;;;;;;;17.94;49.58;100971.44;4983886;28;99593;-76
2021/09/11 00:46:56;;;;;;;1999.90;999.90;;;;;;;17.95;50.01;100967.81;5000955;28;97901;-75
2021/09/11 00:49:24;;;;;;;1999.90;999.90;;;;;;;17.96;49.68;100969.63;4996609;28;96769;-77
2021/09/11 00:51:53;;;;;;;1999.90;999.90;;;;;;;17.96;49.63;100963.34;4997208;28;97291;-76
2021/09/11 00:54:21;;;;;;;1999.90;999.90;;;;;;;17.96;49.88;100964.22;4994188;28;101429;-77
2021/09/11 00:56:56;;;;;;;1999.90;999.90;;;;;;;17.99;49.55;100957.91;4980891;28;97286;-77
2021/09/11 00:59:24;;;;;;;1999.90;999.90;;;;;;;17.99;49.97;100960.59;4994698;28;97616;-74
2021/09/11 01:02:07;;;;;;;1999.90;999.90;;;;;;;18.03;49.80;100962.38;4995566;28;98585;-77
2021/09/11 01:04:35;;;;;;;1999.90;999.90;;;;;;;18.03;49.75;100965.97;4981089;28;99430;-77
2021/09/11 01:07:12;;;;;;;1999.90;999.90;;;;;;;18.05;49.61;100968.69;4995057;28;97901;-76
2021/09/11 01:09:53;;;;;;;1999.90;999.90;;;;;;;18.06;49.59;100966.91;4998926;28;96262;-77
2021/09/11 01:12:21;;;;;;;1999.90;999.90;;;;;;;18.07;49.61;100969.59;4987478;28;99870;-77
2021/09/11 01:14:49;;;;;;;1999.90;999.90;;;;;;;18.08;49.75;100968.66;4996874;28;96873;-76
2021/09/11 01:17:17;;;;;;;1999.90;999.90;;;;;;;18.16;49.59;100976.69;4996913;28;97337;-76
2021/09/11 01:19:45;;;;;;;1999.90;999.90;;;;;;;18.22;49.34;100976.66;4996674;28;97657;-77
2021/09/11 01:22:15;;;;;;;1999.90;999.90;;;;;;;18.27;49.20;100981.13;4993337;28;98936;-76
2021/09/11 01:24:54;;;;;;;1999.90;999.90;;;;;;;18.30;49.12;100982.88;4996977;28;100691;-78
2021/09/11 01:27:23;;;;;;;1999.90;999.90;;;;;;;18.28;49.36;100979.28;4970721;28;96904;-77
2021/09/11 01:29:55;;;;;;;1999.90;999.90;;;;;;;18.30;49.22;100986.47;4990483;28;96960;-77
2021/09/11 01:32:24;;;;;;;1999.90;999.90;;;;;;;18.30;49.05;100985.56;4995070;28;99459;-76
2021/09/11 01:34:52;;;;;;;1999.90;999.90;;;;;;;18.28;49.40;100990.97;4984978;28;98876;-76
2021/09/11 01:37:20;;;;;;;1999.90;999.90;;;;;;;18.29;49.13;100990.09;4994002;28;97108;-75
2021/09/11 01:39:49;;;;;;;1999.90;999.90;;;;;;;18.30;49.19;100990.94;4986026;28;97162;-76
2021/09/11 01:42:19;;;;;;;1999.90;999.90;;;;;;;18.28;49.08;100981.97;4993826;28;99733;-76
2021/09/11 01:44:47;;;;;;;1999.90;999.90;;;;;;;18.27;49.29;100989.19;4979490;28;99243;-77
2021/09/11 01:47:16;;;;;;;1999.90;999.90;;;;;;;18.27;49.41;100991.88;4994393;28;97119;-76
2021/09/11 01:49:44;;;;;;;1999.90;999.90;;;;;;;18.29;49.17;100995.47;4993987;28;96751;-77
2021/09/11 01:52:12;;;;;;;1999.90;999.90;;;;;;;18.29;49.28;100990.09;4985098;28;98258;-76
2021/09/11 01:54:41;;;;;;;1999.90;999.90;;;;;;;18.28;49.48;100998.16;4996942;28;99031;-76
2021/09/11 01:57:10;;;;;;;1999.90;999.90;;;;;;;18.26;49.27;100997.28;4977487;28;97191;-75
2021/09/11 01:59:39;;;;;;;1999.90;999.90;;;;;;;18.23;49.11;100995.50;4998958;28;96979;-76
2021/09/11 02:02:08;;;;;;;1999.90;999.90;;;;;;;18.19;49.61;100990.13;4992575;28;99994;-76
2021/09/11 02:04:37;;;;;;;1999.90;999.90;;;;;;;18.17;49.29;100997.34;4997622;28;100949;-76
2021/09/11 02:07:07;;;;;;;1999.90;999.90;;;;;;;18.12;49.62;100991.09;4993868;28;97298;-76
2021/09/11 02:09:36;;;;;;;1999.90;999.90;;;;;;;18.06;49.54;100994.72;4996647;28;97302;-77
2021/09/11 02:12:05;;;;;;;1999.90;999.90;;;;;;;17.96;49.97;100993.84;4997023;28;97853;-77
2021/09/11 02:14:33;;;;;;;1999.90;999.90;;;;;;;17.92;50.14;100997.47;4996364;28;98651;-77
2021/09/11 02:17:03;;;;;;;1999.90;999.90;;;;;;;17.91;50.19;100997.47;4997925;28;97515;-76
2021/09/11 02:19:32;;;;;;;1999.90;999.90;;;;;;;17.91;50.40;101001.03;4978364;28;97034;-77
2021/09/11 02:22:01;;;;;;;1999.90;999.90;;;;;;;17.90;50.08;101001.06;4997363;28;96948;-75
2021/09/11 02:24:30;;;;;;;;;;;;;;;17.36;51.08;100996.78;4995336;28;101111;-75
2021/09/11 02:27:03;;;;;;;1999.90;999.90;;;;;;;17.26;51.53;100994.09;4992302;28;96893;-76
2021/09/11 02:29:31;;;;;;;1999.90;999.90;;;;;;;17.56;50.72;100994.06;5014014;27;97712;-74
2021/09/11 02:32:01;;;;;;;1999.90;999.90;;;;;;;17.65;50.54;100999.41;4971555;28;99310;-76
2021/09/11 02:34:30;;;;;;;1999.90;999.90;;;;;;;17.64;50.58;100998.50;4998081;28;98778;-76
2021/09/11 02:36:58;;;;;;;1999.90;999.90;;;;;;;17.64;50.76;101003.88;4986884;28;96258;-76
2021/09/11 02:39:27;;;;;;;1999.90;999.90;;;;;;;17.67;50.54;101003.88;4979388;28;97036;-76
2021/09/11 02:41:55;;;;;;;1999.90;999.90;;;;;;;17.70;50.64;100997.56;4996308;28;99118;-76
2021/09/11 02:44:23;;;;;;;1999.90;999.90;;;;;;;17.74;50.67;100996.66;4988513;28;97682;-75
2021/09/11 02:46:51;;;;;;;1999.90;999.90;;;;;;;17.75;50.58;101001.13;4980711;28;96842;-76
2021/09/11 02:49:19;;;;;;;1999.90;999.90;;;;;;;17.74;50.53;100993.97;5007052;27;97402;-75
2021/09/11 02:51:48;;;;;;;1999.90;999.90;;;;;;;17.75;50.30;101001.13;4979158;28;100660;-76
2021/09/11 02:54:16;;;;;;;1999.90;999.90;;;;;;;17.75;50.55;101001.13;4997600;28;97231;-76
2021/09/11 02:56:44;;;;;;;1999.90;999.90;;;;;;;17.78;50.63;100993.94;4977670;28;96887;-76
2021/09/11 02:59:12;;;;;;;1999.90;999.90;;;;;;;17.75;50.68;101001.13;4998446;28;97281;-77
2021/09/11 03:01:40;;;;;;;1999.90;999.90;;;;;;;17.73;50.70;100997.56;4979829;28;100153;-77
2021/09/11 03:04:09;;;;;;;1999.90;999.90;;;;;;;17.68;50.60;101000.28;4979330;28;100561;-76
2021/09/11 03:06:37;;;;;;;1999.90;999.90;;;;;;;17.67;51.19;101000.28;4997289;28;96851;-77
2021/09/11 03:09:06;;;;;;;1999.90;999.90;;;;;;;17.62;51.06;100994.91;4997086;28;96969;-77
2021/09/11 03:11:34;;;;;;;1999.90;999.90;;;;;;;17.58;51.03;100997.63;5000326;28;97565;-77
2021/09/11 03:14:02;;;;;;;1999.90;999.90;;;;;;;17.52;51.39;100998.56;4980514;28;97804;-76
2021/09/11 03:16:30;;;;;;;1999.90;999.90;;;;;;;17.49;51.31;100993.16;4997792;28;97221;-77
2021/09/11 03:18:58;;;;;;;1999.90;999.90;;;;;;;17.48;51.32;100994.09;4980032;28;97589;-77
2021/09/11 03:21:26;;;;;;;1999.90;999.90;;;;;;;17.45;51.37;100991.41;4981166;28;99538;-76
2021/09/11 03:23:54;;;;;;;1999.90;999.90;;;;;;;17.43;51.47;100989.63;4997257;28;99209;-77
2021/09/11 03:26:26;;;;;;;1999.90;999.90;;;;;;;17.37;51.68;100993.19;4976948;28;96920;-77
2021/09/11 03:28:54;;;;;;;1999.90;999.90;;;;;;;17.33;51.37;100996.78;5000566;28;97674;-77
2021/09/11 03:31:22;;;;;;;1999.90;999.90;;;;;;;17.29;51.73;100994.13;5000183;28;99355;-77
2021/09/11 03:33:50;;;;;;;1999.90;999.90;;;;;;;17.28;51.82;101001.28;4992669;28;99339;-77
2021/09/11 03:36:21;;;;;;;1999.90;999.90;;;;;;;17.30;51.93;100996.81;4998359;28;97319;-76
2021/09/11 03:38:48;;;;;;;1999.90;999.90;;;;;;;17.32;51.87;101000.38;4998194;28;97200;-76
2021/09/11 03:41:17;;;;;;;1999.90;999.90;;;;;;;17.35;52.11;100996.78;4997699;28;97747;-77
2021/09/11 03:43:46;;;;;;;1999.90;999.90;;;;;;;17.35;52.11;101003.06;4998525;28;97663;-77
2021/09/11 03:46:14;;;;;;;1999.90;999.90;;;;;;;17.35;52.04;101003.06;4981728;28;97271;-77
2021/09/11 03:48:42;;;;;;;1999.90;999.90;;;;;;;17.34;52.16;101011.13;4983361;28;96827;-75
2021/09/11 03:51:10;;;;;;;1999.90;999.90;;;;;;;17.30;52.32;101012.03;4991637;28;99727;-76
2021/09/11 03:53:38;;;;;;;1999.90;999.90;;;;;;;17.27;52.37;101004.91;4999645;28;97603;-76
2021/09/11 03:56:06;;;;;;;1999.90;999.90;;;;;;;17.26;52.60;101010.25;5003141;28;98786;-77
2021/09/11 03:58:34;;;;;;;1999.90;999.90;;;;;;;17.23;52.73;101007.56;5001235;28;96875;-77
2021/09/11 04:01:04;;;;;;;1999.90;999.90;;;;;;;17.20;52.93;101008.47;4995795;28;98706;-76
2021/09/11 04:03:32;;;;;;;1999.90;999.90;;;;;;;17.17;53.19;101008.50;4979748;28;102021;-75
2021/09/11 04:06:00;;;;;;;1999.90;999.90;;;;;;;17.15;53.09;101007.59;4995353;28;97568;-77
2021/09/11 04:08:31;;;;;;;1999.90;999.90;;;;;;;17.12;53.14;101002.22;4972529;28;96948;-76
2021/09/11 04:10:59;;;;;;;1999.90;999.90;;;;;;;17.08;53.45;101011.19;4998253;28;98957;-76
2021/09/11 04:13:27;;;;;;;1999.90;999.90;;;;;;;17.07;53.52;101009.41;4982379;28;99752;-76
2021/09/11 04:15:55;;;;;;;1999.90;999.90;;;;;;;17.11;53.60;101015.69;4980342;28;96999;-76
2021/09/11 04:18:25;;;;;;;1999.90;999.90;;;;;;;17.16;53.54;101012.09;4997527;28;97809;-76
2021/09/11 04:20:53;;;;;;;1999.90;999.90;;;;;;;17.19;53.42;101012.06;4995857;28;101130;-76
2021/09/11 04:23:21;;;;;;;1999.90;999.90;;;;;;;17.24;53.51;101012.94;4995862;28;99236;-77
2021/09/11 04:25:49;;;;;;;1999.90;999.90;;;;;;;17.31;53.27;101008.47;4998585;28;97489;-77
2021/09/11 04:28:17;;;;;;;1999.90;999.90;;;;;;;17.34;53.36;101017.41;4997750;28;97308;-76
2021/09/11 04:30:48;;;;;;;1999.90;999.90;;;;;;;17.40;53.29;101020.09;4981999;28;99436;-75
2021/09/11 04:33:16;;;;;;;1999.90;999.90;;;;;;;17.46;52.97;101014.72;4998600;28;99332;-76
2021/09/11 04:35:45;;;;;;;1999.90;999.90;;;;;;;17.45;53.08;101017.41;4998258;28;97250;-76
2021/09/11 04:38:13;;;;;;;1999.90;999.90;;;;;;;17.49;53.06;101020.06;4995765;28;96917;-76
2021/09/11 04:40:41;;;;;;;1999.90;999.90;;;;;;;17.52;52.92;101025.47;4995888;28;98658;-75
2021/09/11 04:43:09;;;;;;;1999.90;999.90;;;;;;;17.55;52.80;101019.16;5002378;27;97759;-76
2021/09/11 04:45:37;;;;;;;1999.90;999.90;;;;;;;17.56;52.82;101026.34;4980095;28;97222;-77
2021/09/11 04:48:05;;;;;;;1999.90;999.90;;;;;;;17.56;52.63;101032.63;4981188;28;96901;-75
2021/09/11 04:50:33;;;;;;;1999.90;999.90;;;;;;;17.55;52.76;101029.91;4973880;28;99844;-76
2021/09/11 04:53:02;;;;;;;1999.90;999.90;;;;;;;17.54;52.87;101031.75;4997653;28;96878;-76
2021/09/11 04:55:30;;;;;;;1999.90;999.90;;;;;;;17.55;53.06;101035.31;4997618;28;96902;-75
2021/09/11 04:57:58;;;;;;;1999.90;999.90;;;;;;;17.56;52.83;101038.00;4989386;28;96929;-74
2021/09/11 05:00:27;;;;;;;1999.90;999.90;;;;;;;17.57;53.07;101037.09;4984399;28;99451;-76
2021/09/11 05:02:57;;;;;;;1999.90;999.90;;;;;;;17.53;52.84;101038.00;4999441;28;100829;-76
2021/09/11 05:05:26;;;;;;;1999.90;999.90;;;;;;;17.53;52.93;101034.44;4996099;28;96868;-75
2021/09/11 05:07:54;;;;;;;1999.90;999.90;;;;;;;17.54;52.94;101034.44;5001849;28;97058;-76
2021/09/11 05:10:24;;;;;;;1999.90;999.90;;;;;;;17.53;52.73;101032.63;4986977;28;98008;-76
2021/09/11 05:12:53;;;;;;;1999.90;999.90;;;;;;;17.51;52.83;101036.25;4986703;28;99763;-77
2021/09/11 05:15:21;;;;;;;1999.90;999.90;;;;;;;17.40;53.00;101038.94;5001923;28;97082;-77
2021/09/11 05:17:49;;;;;;;1999.90;999.90;;;;;;;17.35;53.13;101038.03;5000491;28;97033;-76
2021/09/11 05:20:17;;;;;;;1999.90;999.90;;;;;;;17.32;53.07;101034.44;4996186;28;100511;-75
2021/09/11 05:22:45;;;;;;;1999.90;999.90;;;;;;;17.32;53.29;101032.66;4979747;28;101416;-76
2021/09/11 05:25:14;;;;;;;1999.90;999.90;;;;;;;17.32;53.32;101037.13;4998465;28;96788;-76
2021/09/11 05:27:43;;;;;;;1999.90;999.90;;;;;;;17.32;53.06;101040.72;4995157;28;97136;-75
2021/09/11 05:30:13;;;;;;;1999.90;999.90;;;;;;;17.31;53.21;101033.53;4994026;28;98540;-76
2021/09/11 05:32:41;;;;;;;1999.90;999.90;;;;;;;17.32;53.01;101035.34;5000350;28;97262;-76
2021/09/11 05:35:09;;;;;;;1999.90;999.90;;;;;;;17.30;52.96;101033.56;4996190;28;97265;-74
2021/09/11 05:37:37;;;;;;;1999.90;999.90;;;;;;;17.29;53.06;101043.41;4996701;28;97190;-76
2021/09/11 05:40:06;;;;;;;1999.90;999.90;;;;;;;17.30;53.08;101047.00;4983717;28;97237;-76
2021/09/11 05:42:36;;;;;;;1999.90;999.90;;;;;;;17.28;52.92;101051.50;5000142;28;97721;-76
2021/09/11 05:45:06;;;;;;;1999.90;999.90;;;;;;;17.28;53.25;101054.19;4995555;28;97106;-76
2021/09/11 05:47:35;;;;;;;1999.90;999.90;;;;;;;17.25;53.24;101055.09;4979971;28;97016;-75
2021/09/11 05:50:03;;;;;;;1999.90;999.90;;;;;;;17.26;53.27;101047.91;4997549;28;99680;-77
2021/09/11 05:52:31;;;;;;;1999.90;999.90;;;;;;;17.24;53.30;101061.34;5000726;28;97960;-76
2021/09/11 05:54:59;;;;;;;1999.90;999.90;;;;;;;17.23;53.34;101056.00;4992631;28;97517;-76
2021/09/11 05:57:27;;;;;;;1999.90;999.90;;;;;;;17.18;53.37;101061.41;4997101;28;98633;-76
2021/09/11 05:59:56;;;;;;;1999.90;999.90;;;;;;;17.14;53.26;101064.06;4999247;28;100944;-77
2021/09/11 06:02:25;;;;;;;1999.90;999.90;;;;;;;17.10;53.51;101055.13;4983168;28;97523;-75
2021/09/11 06:04:53;;;;;;;1999.90;999.90;;;;;;;17.09;53.64;101061.38;4999066;28;96906;-75
2021/09/11 06:07:21;;;;;;;1999.90;999.90;;;;;;;17.08;53.65;101055.13;4998337;28;97020;-77
2021/09/11 06:09:49;;;;;;;1999.90;999.90;;;;;;;17.13;53.80;101057.78;4975945;28;99909;-77
2021/09/11 06:12:17;;;;;;;1999.90;999.90;;;;;;;17.18;53.97;101052.41;5006639;27;98248;-77
2021/09/11 06:14:45;;;;;;;1999.90;999.90;;;;;;;17.17;53.64;101062.28;4994335;28;96688;-77
2021/09/11 06:17:13;;;;;;;1999.90;999.90;;;;;;;17.16;53.91;101057.81;4988511;28;96893;-76
2021/09/11 06:19:42;;;;;;;1999.90;999.90;;;;;;;17.18;53.75;101066.78;4982181;28;100442;-76
2021/09/11 06:22:12;;;;;;;1999.90;999.90;;;;;;;17.18;53.79;101064.09;5000622;28;99228;-77
2021/09/11 06:24:41;;;;;;;1999.90;999.90;;;;;;;17.22;53.64;101068.53;5002292;28;96834;-78
2021/09/11 06:27:09;;;;;;;1999.90;999.90;;;;;;;17.20;53.61;101064.94;5015181;27;96910;-78
2021/09/11 06:29:37;;;;;;;1999.90;999.90;;;;;;;17.19;53.63;101064.97;4996988;28;99735;-78
2021/09/11 06:32:05;;;;;;;1999.90;999.90;;;;;;;17.16;53.43;101067.66;4979401;28;97904;-77
2021/09/11 06:34:33;;;;;;;1999.90;999.90;;;;;;;17.15;53.61;101069.44;4991633;28;97033;-77
2021/09/11 06:37:03;;;;;;;1999.90;999.90;;;;;;;17.16;53.65;101073.94;4997226;28;97297;-78
2021/09/11 06:39:31;;;;;;;1999.90;999.90;;;;;;;17.17;53.61;101066.75;4978244;28;101438;-77
2021/09/11 06:41:59;;;;;;;1999.90;999.90;;;;;;;17.14;53.71;101070.34;4996051;28;99452;-78
2021/09/11 06:44:27;;;;;;;1999.90;999.90;;;;;;;17.15;53.63;101072.13;4980803;28;97339;-78
2021/09/11 06:46:55;;;;;;;1999.90;999.90;;;;;;;17.14;53.77;101075.75;5000512;28;96938;-78
2021/09/11 06:49:23;;;;;;;1999.90;999.90;;;;;;;17.13;53.76;101079.31;4981814;28;99289;-77
2021/09/11 06:51:51;;;;;;;1999.90;999.90;;;;;;;17.14;53.73;101074.84;4997608;28;99365;-76
2021/09/11 06:54:20;;;;;;;1999.90;999.90;;;;;;;17.10;53.68;101082.00;4990855;28;96899;-77
2021/09/11 06:56:48;;;;;;;1999.90;999.90;;;;;;;17.11;53.71;101074.84;4980411;28;97074;-78
2021/09/11 06:59:16;;;;;;;1999.90;999.90;;;;;;;17.09;53.85;101074.81;4977626;28;97905;-77
2021/09/11 07:01:45;;;;;;;1999.90;999.90;;;;;;;17.09;53.84;101072.13;4978551;28;100702;-77
2021/09/11 07:04:13;;;;;;;1999.90;999.90;;;;;;;17.12;53.68;101079.31;4982429;28;96980;-78
2021/09/11 07:06:41;;;;;;;1999.90;999.90;;;;;;;17.09;53.56;101082.88;5000091;28;96880;-76
2021/09/11 07:09:09;;;;;;;1999.90;999.90;;;;;;;17.04;53.52;101085.59;4997055;28;98030;-78
2021/09/11 07:11:39;;;;;;;1999.90;999.90;;;;;;;17.03;53.35;101086.50;5000474;28;98681;-77
2021/09/11 07:14:07;;;;;;;1999.90;999.90;;;;;;;17.02;53.62;101086.47;4996072;28;96884;-77
2021/09/11 07:16:35;;;;;;;1999.90;999.90;;;;;;;17.04;53.65;101095.44;4996407;28;96959;-76
2021/09/11 07:19:03;;;;;;;1999.90;999.90;;;;;;;17.06;53.68;101089.19;4988321;28;99731;-76
2021/09/11 07:21:31;;;;;;;1999.90;999.90;;;;;;;17.12;53.58;101095.44;4987588;28;100717;-77
2021/09/11 07:23:59;;;;;;;1999.90;999.90;;;;;;;17.16;53.68;101094.56;4994382;28;97788;-77
2021/09/11 07:26:27;;;;;;;1999.90;999.90;;;;;;;17.20;53.42;101096.34;4971866;28;96993;-77
2021/09/11 07:28:56;;;;;;;1999.90;999.90;;;;;;;17.24;53.20;101104.41;4970276;28;99870;-77
2021/09/11 07:31:24;;;;;;;1999.90;999.90;;;;;;;17.27;53.15;101104.41;4987527;28;99498;-78
2021/09/11 07:33:52;;;;;;;1999.90;999.90;;;;;;;17.29;52.72;101102.59;4992036;28;97030;-78
2021/09/11 07:36:20;;;;;;;1999.90;999.90;;;;;;;17.29;52.69;101109.78;4995760;28;96828;-78
2021/09/11 07:38:49;;;;;;;1999.90;999.90;;;;;;;17.28;52.77;101106.19;4993815;28;97570;-78
2021/09/11 07:41:17;;;;;;;1999.90;999.90;;;;;;;17.28;52.56;101100.81;4977556;28;100675;-78
2021/09/11 07:43:45;;;;;;;1999.90;999.90;;;;;;;17.27;52.50;101106.19;4983504;28;97320;-77
2021/09/11 07:46:14;;;;;;;1999.90;999.90;;;;;;;17.28;52.58;101110.66;4976829;28;97340;-77
2021/09/11 07:48:42;;;;;;;1999.90;999.90;;;;;;;17.31;52.66;101105.31;4974232;28;99687;-77
2021/09/11 07:51:10;;;;;;;1999.90;999.90;;;;;;;17.30;52.69;101104.41;4978933;28;98902;-78
2021/09/11 07:53:38;;;;;;;1999.90;999.90;;;;;;;17.32;52.62;101112.47;4991941;28;99060;-78
2021/09/11 07:56:10;;;;;;;1999.90;999.90;;;;;;;17.32;52.80;101108.00;4994813;28;97209;-78
2021/09/11 07:58:37;;;;;;;1999.90;999.90;;;;;;;17.34;52.33;101111.56;4993230;28;98198;-78
2021/09/11 08:01:05;;;;;;;1999.90;999.90;;;;;;;17.37;52.43;101108.88;4993812;28;97892;-76
2021/09/11 08:03:36;;;;;;;1999.90;999.90;;;;;;;17.39;52.46;101122.34;4992641;28;96930;-77
2021/09/11 08:06:07;;;;;;;1999.90;999.90;;;;;;;17.40;52.30;101119.66;4991207;28;96979;-76
2021/09/11 08:08:36;;;;;;;1999.90;999.90;;;;;;;17.39;52.28;101114.28;4974672;28;99289;-77
2021/09/11 08:11:07;;;;;;;1999.90;999.90;;;;;;;17.39;52.41;101119.66;4974304;28;98509;-77
2021/09/11 08:13:35;;;;;;;1999.90;999.90;;;;;;;17.41;52.22;101128.63;4992401;28;97081;-77
2021/09/11 08:16:05;;;;;;;1999.90;999.90;;;;;;;17.48;52.18;101125.03;4985571;28;97095;-77
2021/09/11 08:18:36;;;;;;;1999.90;999.90;;;;;;;17.52;52.16;101124.13;4983801;28;98644;-76
2021/09/11 08:21:05;;;;;;;1999.90;999.90;;;;;;;17.56;52.00;101132.19;4987088;28;99654;-76
2021/09/11 08:23:32;;;;;;;1999.90;999.90;;;;;;;17.57;51.59;101131.28;4993513;28;97570;-77
2021/09/11 08:26:02;;;;;;;1999.90;999.90;;;;;;;17.60;51.74;101136.66;4988102;28;97128;-78
2021/09/11 08:28:31;;;;;;;1999.90;999.90;;;;;;;17.60;51.74;101120.50;4978144;28;97334;-75
2021/09/11 08:30:59;;;;;;;1999.90;999.90;;;;;;;17.60;51.87;101127.72;4991223;28;100712;-76
2021/09/11 08:33:28;;;;;;;1999.90;999.90;;;;;;;17.61;51.94;101121.41;4995782;28;97236;-76
2021/09/11 08:35:58;;;;;;;1999.90;999.90;;;;;;;17.67;51.81;101133.06;4997076;28;97311;-75
2021/09/11 08:38:27;;;;;;;1999.90;999.90;;;;;;;17.67;52.02;101133.06;4987636;28;97676;-76
2021/09/11 08:40:57;;;;;;;1999.90;999.90;;;;;;;17.69;51.95;101131.25;4993525;28;99854;-77
2021/09/11 08:43:25;;;;;;;1999.90;999.90;;;;;;;17.73;51.96;101138.44;4975617;28;97109;-77
2021/09/11 08:45:54;;;;;;;1999.90;999.90;;;;;;;17.77;51.81;101137.53;4969144;28;97387;-76
2021/09/11 08:48:24;;;;;;;1999.90;999.90;;;;;;;17.82;51.60;101143.78;4980945;28;98636;-77
2021/09/11 08:50:55;;;;;;;1999.90;999.90;;;;;;;17.82;51.45;101138.41;4973290;28;99988;-76
2021/09/11 08:53:24;;;;;;;1999.90;999.90;;;;;;;17.88;51.30;101145.56;4986808;28;97277;-76
2021/09/11 08:55:54;;;;;;;1999.90;999.90;;;;;;;17.92;51.11;101139.28;4988778;28;96881;-75
2021/09/11 08:58:23;;;;;;;1999.90;999.90;;;;;;;17.97;50.94;101143.75;4972623;28;100402;-77
2021/09/11 09:00:53;;;;;;;1999.90;999.90;;;;;;;18.03;50.44;101148.22;4983763;28;100008;-76
2021/09/11 09:03:30;;;;;;;1999.90;999.90;;;;;;;18.11;50.59;101151.81;4998700;27;96880;-76
2021/09/11 09:06:17;;;;;;;1999.90;999.90;;;;;;;18.16;50.41;101155.38;4986633;28;97286;-75
2021/09/11 09:08:50;;;;;;;1999.90;999.90;;;;;;;18.19;49.96;101146.38;5005005;28;97114;-76
2021/09/11 09:11:24;;;;;;;1999.90;999.90;;;;;;;18.23;50.18;101145.47;4977748;28;98263;-77
2021/09/11 09:13:57;;;;;;;1999.90;999.90;;;;;;;18.27;49.58;101145.47;4989310;28;97004;-76
2021/09/11 09:16:29;;;;;;;1999.90;999.90;;;;;;;18.31;49.55;101138.25;4985831;28;97059;-76
2021/09/11 09:19:05;;;;;;;1999.90;999.90;;;;;;;18.38;49.44;101150.78;4999372;28;98621;-77
2021/09/11 09:21:34;;;;;;;1999.90;999.90;;;;;;;18.41;49.46;101137.28;4993524;28;96933;-76
2021/09/11 09:24:06;;;;;;;1999.90;999.90;;;;;;;18.45;49.08;101144.47;5004184;27;96797;-76
2021/09/11 09:26:49;;;;;;;1999.90;999.90;;;;;;;18.51;48.95;101142.63;4994264;28;97154;-76
2021/09/11 09:29:18;;;;;;;1999.90;999.90;;;;;;;18.56;49.05;101142.59;4990032;28;100348;-76
2021/09/11 09:31:46;;;;;;;1999.90;999.90;;;;;;;18.57;48.76;101134.50;4975446;28;100334;-77
2021/09/11 09:34:28;;;;;;;1999.90;999.90;;;;;;;18.62;48.71;101139.88;4985139;28;97317;-76
2021/09/11 09:36:58;;;;;;;1999.90;999.90;;;;;;;18.68;48.83;101140.75;4995809;28;95980;-77
2021/09/11 09:39:28;;;;;;;1999.90;999.90;;;;;;;18.70;48.42;101133.56;4994528;28;99179;-77
2021/09/11 09:42:02;;;;;;;1999.90;999.90;;;;;;;18.75;48.26;101138.94;4994449;28;99202;-76
2021/09/11 09:44:40;;;;;;;1999.90;999.90;;;;;;;18.80;47.93;101129.00;4992631;28;97094;-76
2021/09/11 09:47:14;;;;;;;1999.90;999.90;;;;;;;18.84;47.91;101120.84;4975224;28;96826;-76
2021/09/11 09:49:43;;;;;;;1999.90;999.90;;;;;;;18.86;47.32;101119.03;4994736;28;100534;-77
2021/09/11 09:52:11;;;;;;;1999.90;999.90;;;;;;;18.90;47.36;101128.91;4990789;28;99334;-77
2021/09/11 09:54:41;;;;;;;1999.90;999.90;;;;;;;18.95;47.08;101121.66;4986157;28;96908;-77
2021/09/11 09:57:11;;;;;;;1999.90;999.90;;;;;;;19.00;47.53;101110.88;4969497;28;96877;-76
2021/09/11 09:59:43;;;;;;;1999.90;999.90;;;;;;;19.03;47.46;101127.00;4977132;28;98204;-77
2021/09/11 10:02:14;;;;;;;1999.90;999.90;;;;;;;19.05;47.67;101122.50;4977104;28;99138;-77
2021/09/11 10:04:42;;;;;;;1999.90;999.90;;;;;;;19.05;47.18;101119.81;4997040;28;97513;-75
2021/09/11 10:07:10;;;;;;;1999.90;999.90;;;;;;;18.78;48.23;101115.53;4998116;28;97086;-76
2021/09/11 10:09:38;;;;;;;1999.90;999.90;;;;;;;18.66;48.61;101115.56;4972691;28;99667;-76
2021/09/11 10:12:28;;;;;;;1999.90;999.90;;;;;;;18.66;48.56;101117.38;5011057;28;99353;-76
2021/09/11 10:15:26;;;;;;;1999.90;999.90;;;;;;;18.84;47.85;101115.47;4984979;28;97287;-75
2021/09/11 10:17:54;;;;;;;1999.90;999.90;;;;;;;18.92;47.72;101118.09;4996849;28;97369;-76
2021/09/11 10:20:23;;;;;;;1999.90;999.90;;;;;;;18.97;47.83;101117.16;4998687;28;100283;-75
2021/09/11 10:23:06;;;;;;;1999.90;999.90;;;;;;;19.05;47.90;101114.41;4971859;28;99274;-76
2021/09/11 10:25:42;;;;;;;1999.90;999.90;;;;;;;19.11;47.44;101114.38;4996957;28;97048;-76
2021/09/11 10:28:14;;;;;;;1999.90;999.90;;;;;;;19.21;47.37;101115.19;4997813;28;96983;-75
2021/09/11 10:31:06;;;;;;;1999.90;999.90;;;;;;;19.27;47.29;101115.09;4998481;28;97640;-76
2021/09/11 10:33:42;;;;;;;1999.90;999.90;;;;;;;19.26;47.29;101130.44;4980574;28;98196;-76
2021/09/11 10:36:12;;;;;;;1999.90;999.90;;;;;;;19.24;47.67;101131.34;4972129;28;96976;-76
2021/09/11 10:38:41;;;;;;;1999.90;999.90;;;;;;;19.18;48.24;101134.97;4972014;28;96905;-75
2021/09/11 10:41:11;;;;;;;1999.90;999.90;;;;;;;19.11;48.20;101132.34;4995623;28;99039;-76
2021/09/11 10:43:40;;;;;;;1999.90;999.90;;;;;;;19.10;48.58;101134.13;4995002;28;98762;-76
2021/09/11 10:46:11;;;;;;;1999.90;999.90;;;;;;;19.06;48.98;101132.41;4976785;28;97055;-76
2021/09/11 10:48:50;;;;;;;1999.90;999.90;;;;;;;19.06;49.19;101135.09;4995310;28;97390;-75
2021/09/11 10:51:24;;;;;;;1999.90;999.90;;;;;;;19.05;49.05;101130.59;4973785;28;98620;-76
2021/09/11 10:54:12;;;;;;;1999.90;999.90;;;;;;;19.03;49.56;101125.22;4992207;28;99346;-76
2021/09/11 10:56:43;;;;;;;1999.90;999.90;;;;;;;19.04;49.86;101129.69;4972066;28;97849;-76
2021/09/11 10:59:31;;;;;;;1999.90;999.90;;;;;;;19.06;49.48;101115.31;4999379;27;96906;-77